createdAt,value
2023-04-20T00:01:36.248Z,8.10
2023-04-20T00:04:06.290Z,8.10
2023-04-20T00:06:34.535Z,8.10
2023-04-20T00:09:04.692Z,8.10
2023-04-20T00:11:32.895Z,8.00
2023-04-20T00:14:01.517Z,8.00
2023-04-20T00:16:29.858Z,8.00
2023-04-20T00:18:58.302Z,7.90
2023-04-20T00:21:27.830Z,7.90
2023-04-20T00:23:55.908Z,7.90
2023-04-20T00:26:24.034Z,7.90
2023-04-20T00:28:52.723Z,7.80
2023-04-20T00:31:21.121Z,7.70
2023-04-20T00:33:49.777Z,7.70
2023-04-20T00:36:17.892Z,7.70
2023-04-20T00:38:47.405Z,7.60
2023-04-20T00:41:15.650Z,7.60
2023-04-20T00:43:52.441Z,7.60
2023-04-20T00:46:20.879Z,7.50
2023-04-20T00:48:50.600Z,7.50
2023-04-20T00:51:19.377Z,7.40
2023-04-20T00:53:49.128Z,7.40
2023-04-20T00:56:17.823Z,7.30
2023-04-20T00:58:46.880Z,7.30
2023-04-20T01:01:17.887Z,7.30
2023-04-20T01:03:47.037Z,7.30
2023-04-20T01:06:17.074Z,7.20
2023-04-20T01:08:52.083Z,7.20
2023-04-20T01:11:20.585Z,7.10
2023-04-20T01:13:50.148Z,7.00
2023-04-20T01:16:18.773Z,7.00
2023-04-20T01:18:48.576Z,6.90
2023-04-20T01:21:18.895Z,6.90
2023-04-20T01:23:49.546Z,6.90
2023-04-20T01:26:19.232Z,6.90
2023-04-20T01:28:48.294Z,6.90
2023-04-20T01:31:16.990Z,6.90
2023-04-20T01:33:45.927Z,6.90
2023-04-20T01:36:15.036Z,6.90
2023-04-20T01:38:43.414Z,6.90
2023-04-20T01:41:13.532Z,6.90
2023-04-20T01:43:42.666Z,6.80
2023-04-20T01:46:12.005Z,6.90
2023-04-20T01:48:40.494Z,6.80
2023-04-20T01:51:09.902Z,6.80
2023-04-20T01:53:38.459Z,6.80
2023-04-20T01:56:07.211Z,6.80
2023-04-20T01:58:37.300Z,6.70
2023-04-20T02:01:06.005Z,6.80
2023-04-20T02:03:35.398Z,6.70
2023-04-20T02:06:04.130Z,6.70
2023-04-20T02:08:32.934Z,6.70
2023-04-20T02:11:01.542Z,6.60
2023-04-20T02:13:30.381Z,6.60
2023-04-20T02:16:00.249Z,6.50
2023-04-20T02:18:30.260Z,6.50
2023-04-20T02:20:58.702Z,6.50
2023-04-20T02:23:27.205Z,6.40
2023-04-20T02:25:55.647Z,6.40
2023-04-20T02:28:24.060Z,6.30
2023-04-20T02:30:52.930Z,6.30
2023-04-20T02:33:23.016Z,6.30
2023-04-20T02:35:52.544Z,6.30
2023-04-20T02:38:21.248Z,6.30
2023-04-20T02:40:51.107Z,6.30
2023-04-20T02:43:19.508Z,6.30
2023-04-20T02:45:48.211Z,6.30
2023-04-20T02:48:16.867Z,6.30
2023-04-20T02:50:46.973Z,6.20
2023-04-20T02:53:15.914Z,6.20
2023-04-20T02:55:45.122Z,6.20
2023-04-20T02:58:14.143Z,6.20
2023-04-20T03:00:42.929Z,6.20
2023-04-20T03:03:11.825Z,6.10
2023-04-20T03:05:41.219Z,6.10
2023-04-20T03:08:11.213Z,6.10
2023-04-20T03:10:40.072Z,6.10
2023-04-20T03:13:08.690Z,6.00
2023-04-20T03:15:37.163Z,6.00
2023-04-20T03:18:06.045Z,6.00
2023-04-20T03:20:35.486Z,6.00
2023-04-20T03:23:03.985Z,6.10
2023-04-20T03:25:33.982Z,6.10
2023-04-20T03:28:02.780Z,6.10
2023-04-20T03:30:31.330Z,6.10
2023-04-20T03:32:59.805Z,6.10
2023-04-20T03:35:28.842Z,6.20
2023-04-20T03:37:57.405Z,6.10
2023-04-20T03:40:26.383Z,6.10
2023-04-20T03:42:56.260Z,6.10
2023-04-20T03:45:25.018Z,6.00
2023-04-20T03:47:54.257Z,6.10
2023-04-20T03:50:23.116Z,6.00
2023-04-20T03:52:51.894Z,5.90
2023-04-20T03:55:20.450Z,5.90
2023-04-20T03:57:49.133Z,5.90
2023-04-20T04:00:19.279Z,5.90
2023-04-20T04:02:48.078Z,5.90
2023-04-20T04:05:16.988Z,5.90
2023-04-20T04:07:45.903Z,5.80
2023-04-20T04:10:14.736Z,5.80
2023-04-20T04:12:43.418Z,5.90
2023-04-20T04:15:13.197Z,5.90
2023-04-20T04:17:43.267Z,5.90
2023-04-20T04:20:13.164Z,5.90
2023-04-20T04:22:42.303Z,5.90
2023-04-20T04:25:12.366Z,5.90
2023-04-20T04:27:41.212Z,5.90
2023-04-20T04:30:11.401Z,5.90
2023-04-20T04:32:40.144Z,5.90
2023-04-20T04:35:11.894Z,5.90
2023-04-20T04:37:40.699Z,5.90
2023-04-20T04:40:11.089Z,5.90
2023-04-20T04:42:39.934Z,5.90
2023-04-20T04:45:10.460Z,5.90
2023-04-20T04:47:41.667Z,5.90
2023-04-20T04:50:13.209Z,6.00
2023-04-20T04:52:42.488Z,6.00
2023-04-20T04:55:14.476Z,6.00
2023-04-20T04:57:44.760Z,6.00
2023-04-20T05:00:14.201Z,6.00
2023-04-20T05:02:42.701Z,6.00
2023-04-20T05:05:12.992Z,6.00
2023-04-20T05:07:41.483Z,6.10
2023-04-20T05:10:11.284Z,6.10
2023-04-20T05:12:40.623Z,6.10
2023-04-20T05:15:10.530Z,6.10
2023-04-20T05:17:39.003Z,6.20
2023-04-20T05:20:10.887Z,6.20
2023-04-20T05:22:40.899Z,6.20
2023-04-20T05:25:12.601Z,6.30
2023-04-20T05:27:42.667Z,6.30
2023-04-20T05:30:20.577Z,6.30
2023-04-20T05:32:52.207Z,6.30
2023-04-20T05:35:21.791Z,6.40
2023-04-20T05:37:52.033Z,6.40
2023-04-20T05:40:20.672Z,6.40
2023-04-20T05:42:49.431Z,6.40
2023-04-20T05:45:18.027Z,6.50
2023-04-20T05:47:54.478Z,6.50
2023-04-20T05:50:23.803Z,6.50
2023-04-20T05:52:54.570Z,6.50
2023-04-20T05:55:23.598Z,6.60
2023-04-20T05:57:53.252Z,6.60
2023-04-20T06:00:25.331Z,6.60
2023-04-20T06:02:55.665Z,6.60
2023-04-20T06:05:24.242Z,6.60
2023-04-20T06:07:54.272Z,6.60
2023-04-20T06:10:22.834Z,6.50
2023-04-20T06:12:51.346Z,6.50
2023-04-20T06:15:20.052Z,6.30
2023-04-20T06:17:48.676Z,6.10
2023-04-20T06:20:17.345Z,5.90
2023-04-20T06:22:47.271Z,5.80
2023-04-20T06:25:17.517Z,5.80
2023-04-20T06:27:49.670Z,5.80
2023-04-20T06:30:19.973Z,5.80
2023-04-20T06:32:48.478Z,5.80
2023-04-20T06:35:16.804Z,5.80
2023-04-20T06:37:45.303Z,5.80
2023-04-20T06:40:16.113Z,5.80
2023-04-20T06:42:47.054Z,5.80
2023-04-20T06:45:15.578Z,5.80
2023-04-20T06:47:44.394Z,5.80
2023-04-20T06:50:13.342Z,5.80
2023-04-20T06:52:42.525Z,5.80
2023-04-20T06:55:11.388Z,5.80
2023-04-20T06:57:40.046Z,5.80
2023-04-20T07:00:13.255Z,5.90
2023-04-20T07:02:45.785Z,5.90
2023-04-20T07:05:14.567Z,5.90
2023-04-20T07:07:43.902Z,6.00
2023-04-20T07:10:14.091Z,6.00
2023-04-20T07:12:44.278Z,6.00
2023-04-20T07:15:14.567Z,6.00
2023-04-20T07:17:43.398Z,6.10
2023-04-20T07:20:12.560Z,6.10
2023-04-20T07:22:41.794Z,6.10
2023-04-20T07:25:12.788Z,6.20
2023-04-20T07:27:42.729Z,6.20
2023-04-20T07:30:13.722Z,6.30
2023-04-20T07:32:42.802Z,6.30
2023-04-20T07:35:12.549Z,6.30
2023-04-20T07:37:41.615Z,6.50
2023-04-20T07:40:11.657Z,6.50
2023-04-20T07:42:40.250Z,6.40
2023-04-20T07:45:10.298Z,6.50
2023-04-20T07:47:40.768Z,6.50
2023-04-20T07:50:10.078Z,6.50
2023-04-20T07:52:39.151Z,6.50
2023-04-20T07:55:11.752Z,6.60
2023-04-20T07:57:40.836Z,6.60
2023-04-20T08:00:13.058Z,6.70
2023-04-20T08:02:43.233Z,6.70
2023-04-20T08:05:12.358Z,6.80
2023-04-20T08:07:41.876Z,6.80
2023-04-20T08:10:11.423Z,6.80
2023-04-20T08:12:41.589Z,6.80
2023-04-20T08:15:11.729Z,6.90
2023-04-20T08:17:40.477Z,7.00
2023-04-20T08:20:12.595Z,7.00
2023-04-20T08:22:41.228Z,7.00
2023-04-20T08:25:10.359Z,7.10
2023-04-20T08:27:38.965Z,7.10
2023-04-20T08:30:08.886Z,7.20
2023-04-20T08:32:37.457Z,7.20
2023-04-20T08:35:06.466Z,7.30
2023-04-20T08:37:37.670Z,7.50
2023-04-20T08:40:07.162Z,7.50
2023-04-20T08:42:35.774Z,7.70
2023-04-20T08:45:04.641Z,7.80
2023-04-20T08:47:35.546Z,7.90
2023-04-20T08:50:06.500Z,8.20
2023-04-20T08:52:39.509Z,8.30
2023-04-20T08:55:09.324Z,8.70
2023-04-20T08:57:37.751Z,9.00
2023-04-20T09:00:13.482Z,9.10
2023-04-20T09:02:52.123Z,9.30
2023-04-20T09:05:28.319Z,9.20
2023-04-20T09:08:02.323Z,9.00
2023-04-20T09:10:43.117Z,8.80
2023-04-20T09:13:12.157Z,8.80
2023-04-20T09:15:41.080Z,8.70
2023-04-20T09:18:16.519Z,8.70
2023-04-20T09:20:45.840Z,8.60
2023-04-20T09:23:17.958Z,8.60
2023-04-20T09:25:53.561Z,8.60
2023-04-20T09:28:23.049Z,8.60
2023-04-20T09:30:52.354Z,8.60
2023-04-20T09:33:20.853Z,8.50
2023-04-20T09:35:49.443Z,8.40
2023-04-20T09:38:26.798Z,8.40
2023-04-20T09:40:57.754Z,8.40
2023-04-20T09:43:29.429Z,8.30
2023-04-20T09:45:58.137Z,8.40
2023-04-20T09:48:27.287Z,8.40
2023-04-20T10:39:33.445Z,8.70
2023-04-20T10:42:02.553Z,8.90
2023-04-20T10:44:34.400Z,9.10
2023-04-20T10:47:03.051Z,9.20
2023-04-20T10:49:32.439Z,9.50
2023-04-20T10:52:01.871Z,9.60
2023-04-20T10:54:40.500Z,9.70
2023-04-20T10:57:09.961Z,9.90
2023-04-20T10:59:39.131Z,10.00
2023-04-20T11:02:11.065Z,10.00
2023-04-20T11:04:39.431Z,10.00
2023-04-20T11:07:10.675Z,10.00
2023-04-20T11:09:42.883Z,10.10
2023-04-20T11:12:14.958Z,10.10
2023-04-20T11:14:56.336Z,10.10
2023-04-20T11:17:34.021Z,10.10
2023-04-20T11:20:11.418Z,10.00
2023-04-20T11:22:43.294Z,10.10
2023-04-20T11:25:14.548Z,10.10
2023-04-20T11:27:43.586Z,10.00
2023-04-20T11:30:12.203Z,9.90
2023-04-20T11:32:41.361Z,9.70
2023-04-20T11:35:12.412Z,9.80
2023-04-20T11:37:51.479Z,9.80
2023-04-20T11:40:22.154Z,9.90
2023-04-20T11:42:50.876Z,9.90
2023-04-20T11:45:19.311Z,10.00
2023-04-20T11:47:48.077Z,10.10
2023-04-20T11:50:16.700Z,10.10
2023-04-20T11:52:45.491Z,10.00
2023-04-20T11:55:14.385Z,9.90
2023-04-20T11:57:44.515Z,9.90
2023-04-20T12:00:14.112Z,9.90
2023-04-20T12:02:42.773Z,10.00
2023-04-20T12:05:12.861Z,10.10
2023-04-20T12:07:41.733Z,10.20
2023-04-20T12:10:10.717Z,10.20
2023-04-20T12:12:39.342Z,10.10
2023-04-20T12:15:11.619Z,10.00
2023-04-20T12:17:40.271Z,10.00
2023-04-20T12:20:12.271Z,10.00
2023-04-20T12:22:41.142Z,10.10
2023-04-20T12:25:10.611Z,10.10
2023-04-20T12:27:39.614Z,10.00
2023-04-20T12:30:11.548Z,9.80
2023-04-20T12:32:40.942Z,9.60
2023-04-20T12:35:10.391Z,9.20
2023-04-20T12:37:39.090Z,8.60
2023-04-20T12:40:09.182Z,8.10
2023-04-20T12:42:37.898Z,7.80
2023-04-20T12:45:06.973Z,7.80
2023-04-20T12:47:37.490Z,7.80
2023-04-20T12:50:08.508Z,7.60
2023-04-20T12:52:37.313Z,7.60
2023-04-20T12:55:07.466Z,7.60
2023-04-20T12:57:36.658Z,7.40
2023-04-20T13:00:06.672Z,7.30
2023-04-20T13:02:37.009Z,7.50
2023-04-20T13:05:05.925Z,7.60
2023-04-20T13:07:34.060Z,7.80
2023-04-20T13:10:03.068Z,7.90
2023-04-20T13:12:31.536Z,8.20
2023-04-20T13:15:00.336Z,8.60
2023-04-20T13:17:30.501Z,8.80
2023-04-20T13:20:00.308Z,9.30
2023-04-20T13:22:28.964Z,9.40
2023-04-20T13:24:58.910Z,9.60
2023-04-20T13:27:27.372Z,9.60
2023-04-20T13:29:56.161Z,9.40
2023-04-20T13:32:24.808Z,9.30
2023-04-20T13:34:53.391Z,9.30
2023-04-20T13:37:23.422Z,9.20
2023-04-20T13:39:52.332Z,9.00
2023-04-20T13:42:21.421Z,8.70
2023-04-20T13:44:49.988Z,8.10
2023-04-20T13:47:18.714Z,7.60
2023-04-20T13:49:47.262Z,7.40
2023-04-20T13:52:16.206Z,7.20
2023-04-20T13:54:46.515Z,7.10
2023-04-20T13:57:15.210Z,7.30
2023-04-20T13:59:44.248Z,7.60
2023-04-20T14:02:12.691Z,7.70
2023-04-20T14:04:41.208Z,7.90
2023-04-20T14:07:09.688Z,8.10
2023-04-20T14:09:38.335Z,8.50
2023-04-20T14:12:09.294Z,8.70
2023-04-20T14:14:37.726Z,9.00
2023-04-20T14:17:06.459Z,9.20
2023-04-20T14:19:34.777Z,9.30
2023-04-20T14:22:03.037Z,9.40
2023-04-20T14:24:31.596Z,9.60
2023-04-20T14:27:00.726Z,9.90
2023-04-20T14:29:31.015Z,10.00
2023-04-20T14:31:59.849Z,10.30
2023-04-20T14:34:28.379Z,10.30
2023-04-20T14:36:56.936Z,10.40
2023-04-20T14:39:25.391Z,10.60
2023-04-20T14:41:53.668Z,10.80
2023-04-20T14:44:21.905Z,10.90
2023-04-20T14:46:52.039Z,10.70
2023-04-20T14:49:20.488Z,10.50
2023-04-20T14:51:48.934Z,10.30
2023-04-20T14:54:17.612Z,10.20
2023-04-20T14:56:46.410Z,10.20
2023-04-20T14:59:14.881Z,10.00
2023-04-20T15:01:55.303Z,9.60
2023-04-20T15:04:32.546Z,9.20
2023-04-20T15:07:01.531Z,8.40
2023-04-20T15:09:30.149Z,8.20
2023-04-20T15:11:59.359Z,8.20
2023-04-20T15:14:27.942Z,8.10
2023-04-20T15:16:56.427Z,8.20
2023-04-20T15:19:25.310Z,8.20
2023-04-20T15:21:54.918Z,8.30
2023-04-20T15:24:23.140Z,8.50
2023-04-20T15:26:51.855Z,8.60
2023-04-20T15:29:20.711Z,8.70
2023-04-20T15:31:49.184Z,8.90
2023-04-20T15:34:18.201Z,9.00
2023-04-20T15:36:47.198Z,9.10
2023-04-20T15:39:17.245Z,9.20
2023-04-20T15:41:45.974Z,9.40
2023-04-20T15:44:14.550Z,9.40
2023-04-20T15:46:43.221Z,9.50
2023-04-20T15:49:11.615Z,9.70
2023-04-20T15:51:41.190Z,9.80
2023-04-20T15:54:10.726Z,9.90
2023-04-20T15:56:40.921Z,10.00
2023-04-20T15:59:09.435Z,10.00
2023-04-20T16:01:38.333Z,10.10
2023-04-20T16:04:07.459Z,10.20
2023-04-20T16:06:46.462Z,10.30
2023-04-20T16:09:21.190Z,10.40
2023-04-20T16:11:53.301Z,10.50
2023-04-20T16:14:21.747Z,10.60
2023-04-20T16:16:50.089Z,10.60
2023-04-20T16:19:18.332Z,10.50
2023-04-20T16:21:47.230Z,10.50
2023-04-20T16:24:16.378Z,10.50
2023-04-20T16:26:45.337Z,10.50
2023-04-20T16:29:15.057Z,10.50
2023-04-20T16:31:43.501Z,10.50
2023-04-20T16:34:11.991Z,10.50
2023-04-20T16:36:40.424Z,10.60
2023-04-20T16:39:10.378Z,10.60
2023-04-20T16:41:38.623Z,10.60
2023-04-20T16:44:06.925Z,10.60
2023-04-20T16:46:37.259Z,10.70
2023-04-20T16:49:05.925Z,10.70
2023-04-20T16:51:34.656Z,10.80
2023-04-20T16:54:03.060Z,10.90
2023-04-20T16:56:31.429Z,10.90
2023-04-20T16:59:00.209Z,11.00
2023-04-20T17:01:28.680Z,11.10
2023-04-20T17:04:00.108Z,11.20
2023-04-20T17:06:28.969Z,11.30
2023-04-20T17:09:01.534Z,11.30
2023-04-20T17:11:30.407Z,11.30
2023-04-20T17:13:59.052Z,11.30
2023-04-20T17:16:27.356Z,11.30
2023-04-20T17:18:57.477Z,11.20
2023-04-20T17:21:26.213Z,11.10
2023-04-20T17:23:54.938Z,11.10
2023-04-20T17:26:23.331Z,11.00
2023-04-20T17:28:51.591Z,11.00
2023-04-20T17:31:19.986Z,10.90
2023-04-20T17:33:48.625Z,10.90
2023-04-20T17:36:18.491Z,10.70
2023-04-20T17:38:46.735Z,10.70
2023-04-20T17:41:15.505Z,10.60
2023-04-20T17:43:44.366Z,10.50
2023-04-20T17:46:13.185Z,10.40
2023-04-20T17:48:41.628Z,10.40
2023-04-20T17:51:09.951Z,10.40
2023-04-20T17:53:39.910Z,10.30
2023-04-20T17:56:08.463Z,10.30
2023-04-20T17:58:37.225Z,10.30
2023-04-20T18:01:06.291Z,10.30
2023-04-20T18:03:35.374Z,10.20
2023-04-20T18:06:03.943Z,10.20
2023-04-20T18:08:32.568Z,10.20
2023-04-20T18:11:03.233Z,10.10
2023-04-20T18:13:32.090Z,10.10
2023-04-20T18:16:01.779Z,10.00
2023-04-20T18:18:30.056Z,10.00
2023-04-20T18:20:58.732Z,10.00
2023-04-20T18:23:30.079Z,10.00
2023-04-20T18:25:58.498Z,9.90
2023-04-20T18:28:28.371Z,9.90
2023-04-20T18:30:59.034Z,9.90
2023-04-20T18:33:27.926Z,9.80
2023-04-20T18:35:56.793Z,9.80
2023-04-20T18:38:25.720Z,9.70
2023-04-20T18:40:53.983Z,9.70
2023-04-20T18:43:22.171Z,9.60
2023-04-20T18:45:52.118Z,9.60
2023-04-20T18:48:20.425Z,9.50
2023-04-20T18:50:49.370Z,9.50
2023-04-20T18:53:17.940Z,9.50
2023-04-20T18:55:46.609Z,9.40
2023-04-20T18:58:15.517Z,9.40
2023-04-20T19:00:43.881Z,9.40
2023-04-20T19:03:14.017Z,9.30
2023-04-20T19:05:42.903Z,9.30
2023-04-20T19:08:12.401Z,9.30
2023-04-20T19:10:41.091Z,9.20
2023-04-20T19:13:09.509Z,9.20
2023-04-20T19:15:40.689Z,9.20
2023-04-20T19:18:09.260Z,9.10
2023-04-20T19:20:39.448Z,9.10
2023-04-20T19:23:07.653Z,9.10
2023-04-20T19:25:37.476Z,9.00
2023-04-20T19:28:08.243Z,9.00
2023-04-20T19:30:37.097Z,9.00
2023-04-20T19:33:05.881Z,9.00
2023-04-20T19:35:34.862Z,8.90
2023-04-20T19:38:04.571Z,8.90
2023-04-20T19:40:33.166Z,8.80
2023-04-20T19:43:02.053Z,8.80
2023-04-20T19:45:30.705Z,8.80
2023-04-20T19:47:59.134Z,8.70
2023-04-20T19:50:27.956Z,8.70
2023-04-20T19:52:56.144Z,8.60
2023-04-20T19:55:26.411Z,8.60
2023-04-20T19:57:55.240Z,8.50
2023-04-20T20:00:23.674Z,8.40
2023-04-20T20:02:52.668Z,8.40
2023-04-20T20:05:21.368Z,8.40
2023-04-20T20:07:49.786Z,8.40
2023-04-20T20:10:18.266Z,8.40
2023-04-20T20:12:47.983Z,8.30
2023-04-20T20:15:16.900Z,8.30
2023-04-20T20:17:47.793Z,8.20
2023-04-20T20:20:16.878Z,8.20
2023-04-20T20:22:48.501Z,8.20
2023-04-20T20:25:18.421Z,8.10
2023-04-20T20:27:48.375Z,8.10
2023-04-20T20:30:17.249Z,8.10
2023-04-20T20:32:46.610Z,8.10
2023-04-20T20:35:15.262Z,8.10
2023-04-20T20:37:45.730Z,8.00
2023-04-20T20:40:15.574Z,8.00
2023-04-20T20:42:45.175Z,7.90
2023-04-20T20:45:15.612Z,7.90
2023-04-20T20:47:45.084Z,7.80
2023-04-20T20:50:14.331Z,7.80
2023-04-20T20:52:43.367Z,7.70
2023-04-20T20:55:12.223Z,7.70
2023-04-20T20:57:40.903Z,7.60
2023-04-20T21:00:12.349Z,7.60
2023-04-20T21:02:42.626Z,7.50
2023-04-20T21:05:11.793Z,7.40
2023-04-20T21:07:40.406Z,7.40
2023-04-20T21:10:09.988Z,7.30
2023-04-20T21:12:38.449Z,7.30
2023-04-20T21:15:07.979Z,7.30
2023-04-20T21:17:36.269Z,7.20
2023-04-20T21:20:09.292Z,7.20
2023-04-20T21:22:37.722Z,7.10
2023-04-20T21:25:08.127Z,7.10
2023-04-20T21:27:36.486Z,7.10
2023-04-20T21:30:05.466Z,7.00
2023-04-20T21:32:36.610Z,7.00
2023-04-20T21:35:06.834Z,7.00
2023-04-20T21:37:35.607Z,7.00
2023-04-20T21:40:04.885Z,6.90
2023-04-20T21:42:33.306Z,6.90
2023-04-20T21:45:02.875Z,6.90
2023-04-20T21:47:31.195Z,6.90
2023-04-20T21:49:59.584Z,6.80
2023-04-20T21:52:30.064Z,6.80
2023-04-20T21:54:58.653Z,6.80
2023-04-20T21:57:28.665Z,6.80
2023-04-20T21:59:57.060Z,6.80
2023-04-20T22:02:26.248Z,6.80
2023-04-20T22:04:56.154Z,6.80
2023-04-20T22:07:24.409Z,6.80
2023-04-20T22:09:54.100Z,6.80
2023-04-20T22:12:38.332Z,6.80
2023-04-20T22:15:11.078Z,6.80
2023-04-20T22:17:39.742Z,6.80
2023-04-20T22:20:10.899Z,6.80
2023-04-20T22:22:40.394Z,6.90
2023-04-20T22:25:11.822Z,6.90
2023-04-20T22:27:40.748Z,6.90
2023-04-20T22:30:09.936Z,6.90
2023-04-20T22:32:38.794Z,6.90
2023-04-20T22:35:07.932Z,7.00
2023-04-20T22:37:36.664Z,7.00
2023-04-20T22:40:07.808Z,7.00
2023-04-20T22:42:38.012Z,7.10
2023-04-20T22:45:07.173Z,7.10
2023-04-20T22:47:35.639Z,7.10
2023-04-20T22:50:04.200Z,7.20
2023-04-20T22:52:32.444Z,7.20
2023-04-20T22:55:01.545Z,7.30
2023-04-20T22:57:29.961Z,7.30
2023-04-20T23:00:00.304Z,7.40
2023-04-20T23:02:29.164Z,7.40
2023-04-20T23:04:58.006Z,7.40
2023-04-20T23:07:26.567Z,7.40
2023-04-20T23:09:56.818Z,7.40
2023-04-20T23:12:26.961Z,7.40
2023-04-20T23:14:55.485Z,7.40
2023-04-20T23:17:25.563Z,7.40
2023-04-20T23:19:54.197Z,7.40
2023-04-20T23:22:23.080Z,7.40
2023-04-20T23:24:51.587Z,7.40
2023-04-20T23:27:21.946Z,7.40
2023-04-20T23:29:50.184Z,7.40
2023-04-20T23:32:18.358Z,7.40
2023-04-20T23:34:48.662Z,7.30
2023-04-20T23:37:17.390Z,7.30
2023-04-20T23:39:46.043Z,7.30
2023-04-20T23:42:14.879Z,7.30
2023-04-20T23:44:43.053Z,7.10
2023-04-20T23:47:11.490Z,7.10
2023-04-20T23:49:39.825Z,7.00
2023-04-20T23:52:10.154Z,7.00
2023-04-20T23:54:38.683Z,7.00
2023-04-20T23:57:07.388Z,7.10
2023-04-20T23:59:35.751Z,7.10
